Time;durP1;ratioP1;P1;durP2;ratioP2;P2;SDS_P1;SDS_P2;PMS_P1;PMS_P2;Temp;Humidity;BMP_temperature;BMP_pressure;BME280_temperature;BME280_humidity;BME280_pressure;Samples;Min_cycle;Max_cycle;Signal;HPM_P1;HPM_P2
2022/09/18 00:01:32;;;;;;;18.52;2.83;;;10.00;99.90;;;;;;5103011;28;20044;-67
2022/09/18 00:04:00;;;;;;;19.88;2.67;;;10.00;99.90;;;;;;5099678;28;20762;-67
2022/09/18 00:06:28;;;;;;;14.73;2.17;;;10.00;99.90;;;;;;5090150;28;20051;-67
2022/09/18 00:08:57;;;;;;;12.85;2.35;;;10.00;99.90;;;;;;5100866;28;20052;-66
2022/09/18 00:11:26;;;;;;;14.57;3.33;;;10.10;99.90;;;;;;5098977;28;20106;-66
2022/09/18 00:13:52;;;;;;;15.60;2.38;;;10.10;99.90;;;;;;5104156;28;20047;-67
2022/09/18 00:16:20;;;;;;;19.25;2.75;;;10.10;99.90;;;;;;5101008;28;20036;-67
2022/09/18 00:18:46;;;;;;;;;;;10.20;99.90;;;;;;5102725;28;20040;-67
2022/09/18 00:21:18;;;;;;;9.20;1.95;;;10.20;99.90;;;;;;5097659;28;20365;-69
2022/09/18 00:23:44;;;;;;;16.25;2.38;;;10.20;99.90;;;;;;5104323;28;20099;-67
2022/09/18 00:26:11;;;;;;;13.27;2.38;;;10.30;99.90;;;;;;5095018;28;20082;-66
2022/09/18 00:28:37;;;;;;;17.77;2.40;;;10.30;99.90;;;;;;5098431;28;20073;-67
2022/09/18 00:31:12;;;;;;;19.27;2.92;;;10.30;99.90;;;;;;5097905;28;20516;-67
2022/09/18 00:33:39;;;;;;;14.93;2.22;;;10.30;99.90;;;;;;5076860;28;20054;-69
2022/09/18 00:36:07;;;;;;;12.82;2.13;;;10.30;99.90;;;;;;5100896;28;20065;-67
2022/09/18 00:38:32;;;;;;;;;;;10.20;99.90;;;;;;5095680;28;20047;-67
2022/09/18 00:41:03;;;;;;;15.35;2.45;;;10.20;99.90;;;;;;5096275;28;19919;-68
2022/09/18 00:43:31;;;;;;;13.98;2.03;;;10.20;99.90;;;;;;5097515;28;20063;-68
2022/09/18 00:46:19;;;;;;;15.77;2.42;;;10.20;99.90;;;;;;5104184;28;20051;-67
2022/09/18 00:49:11;;;;;;;15.52;2.58;;;10.10;99.90;;;;;;5094964;28;20079;-68
2022/09/18 00:51:38;;;;;;;11.80;2.10;;;10.20;99.90;;;;;;5073509;28;20035;-67
2022/09/18 00:54:29;;;;;;;13.25;2.67;;;10.20;99.90;;;;;;5083837;28;20067;-67
2022/09/18 00:56:59;;;;;;;11.07;2.42;;;10.30;99.90;;;;;;5093039;28;20044;-67
2022/09/18 00:59:29;;;;;;;12.43;1.98;;;10.30;99.90;;;;;;5096656;28;20048;-66
2022/09/18 01:01:56;;;;;;;16.70;2.30;;;10.40;99.90;;;;;;5096898;28;20043;-67
2022/09/18 01:04:23;;;;;;;12.52;1.85;;;10.40;99.90;;;;;;5098736;28;20044;-67
2022/09/18 01:07:13;;;;;;;12.85;2.20;;;10.40;99.90;;;;;;5103342;28;20081;-66
2022/09/18 01:10:16;;;;;;;11.15;2.00;;;10.30;99.90;;;;;;5084457;28;20432;-67
2022/09/18 01:12:53;;;;;;;8.48;1.60;;;10.30;99.90;;;;;;5109623;28;20126;-67
2022/09/18 01:15:27;;;;;;;7.22;1.73;;;10.20;99.90;;;;;;5098750;28;20075;-67
2022/09/18 01:18:11;;;;;;;12.45;2.20;;;10.20;99.90;;;;;;5077936;28;20401;-67
2022/09/18 01:20:56;;;;;;;12.60;2.15;;;10.10;99.90;;;;;;5093008;28;20028;-66
2022/09/18 01:23:36;;;;;;;10.30;2.15;;;10.10;99.90;;;;;;5106905;28;20050;-67
2022/09/18 01:26:21;;;;;;;13.85;2.17;;;10.10;99.90;;;;;;5097943;28;20048;-67
2022/09/18 01:28:50;;;;;;;11.63;2.25;;;10.10;99.90;;;;;;5081107;28;20056;-67
2022/09/18 01:31:27;;;;;;;10.32;2.33;;;10.10;99.90;;;;;;5098579;28;20039;-67
2022/09/18 01:34:01;;;;;;;11.73;2.38;;;10.10;99.90;;;;;;5101216;28;20039;-68
2022/09/18 01:36:35;;;;;;;14.23;2.35;;;10.00;99.90;;;;;;5121069;22;20080;-81
2022/09/18 01:39:45;;;;;;;10.85;2.10;;;9.60;99.90;;;;;;5063331;28;20047;-82
2022/09/18 01:42:21;;;;;;;8.57;2.03;;;10.50;99.90;;;;;;5060266;28;20052;-82
2022/09/18 01:45:00;;;;;;;12.27;2.25;;;11.00;99.90;;;;;;5106709;28;20440;-82
2022/09/18 01:48:06;;;;;;;;;;;;;;;;;;;;;
2022/09/18 01:50:40;;;;;;;7.03;1.70;;;10.00;99.90;;;;;;5088365;28;20040;-83
2022/09/18 01:53:35;;;;;;;11.35;1.85;;;9.80;99.90;;;;;;5084308;28;20040;-83
2022/09/18 01:56:27;;;;;;;17.08;2.53;;;9.90;99.90;;;;;;5077818;28;20126;-82
2022/09/18 01:58:56;;;;;;;23.23;2.88;;;9.50;99.90;;;;;;5069609;28;20040;-84
2022/09/18 02:01:28;;;;;;;13.45;1.90;;;9.40;99.90;;;;;;5116894;28;20058;-83
2022/09/18 02:04:11;;;;;;;8.98;1.88;;;10.10;99.90;;;;;;5088538;28;20047;-83
2022/09/18 02:07:06;;;;;;;9.18;1.50;;;9.90;99.90;;;;;;5064175;28;20059;-83
2022/09/18 02:09:33;;;;;;;12.50;1.90;;;9.60;99.90;;;;;;5079379;28;20499;-83
2022/09/18 02:12:02;;;;;;;11.15;2.10;;;9.90;99.90;;;;;;5060481;28;20073;-84
2022/09/18 02:14:34;;;;;;;14.93;2.30;;;9.90;99.90;;;;;;5048131;28;20102;-84
2022/09/18 02:17:26;;;;;;;11.93;2.10;;;9.90;99.90;;;;;;5097471;28;20032;-83
2022/09/18 02:20:07;;;;;;;12.52;2.17;;;9.90;99.90;;;;;;5099460;28;20031;-83
2022/09/18 02:22:34;;;;;;;16.70;2.38;;;10.00;99.90;;;;;;5060356;28;20045;-83
2022/09/18 02:25:34;;;;;;;14.48;2.15;;;10.30;99.90;;;;;;5076579;28;20040;-83
2022/09/18 02:28:11;;;;;;;17.13;2.58;;;9.90;99.90;;;;;;5067623;28;20055;-83
2022/09/18 02:31:18;;;;;;;;;;;;;;;;;;;;;
2022/09/18 02:33:57;;;;;;;12.57;1.63;;;10.60;99.90;;;;;;5070577;28;20506;-82
2022/09/18 02:36:52;;;;;;;14.85;2.15;;;10.00;99.90;;;;;;5068206;28;20487;-83
2022/09/18 02:39:54;;;;;;;12.93;2.33;;;10.00;99.90;;;;;;5059465;28;20102;-83
2022/09/18 02:42:49;;;;;;;16.88;2.28;;;10.20;99.90;;;;;;5078225;28;20498;-83
2022/09/18 02:46:01;;;;;;;13.05;1.92;;;9.20;99.90;;;;;;5079013;28;20052;-83
2022/09/18 02:49:14;;;;;;;15.95;2.13;;;9.50;99.90;;;;;;5039908;28;20106;-83
2022/09/18 02:52:11;;;;;;;14.07;2.13;;;10.00;99.90;;;;;;5077831;28;20047;-83
2022/09/18 02:54:56;;;;;;;10.73;2.50;;;10.10;99.90;;;;;;5080940;28;20283;-82
2022/09/18 02:57:33;;;;;;;12.77;2.22;;;10.10;99.90;;;;;;5060636;28;20128;-82
2022/09/18 03:00:18;;;;;;;14.25;2.33;;;10.50;99.90;;;;;;5059925;28;20123;-83
2022/09/18 03:02:57;;;;;;;15.55;3.47;;;10.10;99.90;;;;;;5046196;28;20503;-83
2022/09/18 03:05:44;;;;;;;22.40;3.40;;;10.20;99.90;;;;;;5059543;28;20056;-82
2022/09/18 03:08:17;;;;;;;16.80;3.00;;;10.50;99.90;;;;;;5061214;28;20098;-82
2022/09/18 03:10:48;;;;;;;8.35;2.15;;;10.60;99.90;;;;;;5044438;28;20406;-82
2022/09/18 03:13:14;;;;;;;25.85;3.17;;;10.20;99.90;;;;;;5069709;28;20104;-83
2022/09/18 03:15:54;;;;;;;18.50;3.42;;;10.30;99.90;;;;;;5084226;28;20035;-81
2022/09/18 03:18:26;;;;;;;17.70;2.75;;;10.30;99.90;;;;;;5046414;28;20109;-81
2022/09/18 03:20:55;;;;;;;10.88;2.55;;;10.60;99.90;;;;;;5061269;28;20622;-82
2022/09/18 03:23:24;;;;;;;11.38;1.92;;;11.20;99.90;;;;;;5094408;28;20101;-83
2022/09/18 03:25:50;;;;;;;11.15;1.80;;;11.00;99.90;;;;;;5067531;28;20178;-82
2022/09/18 03:28:19;;;;;;;12.63;2.08;;;10.70;99.90;;;;;;5072016;28;20048;-84
2022/09/18 03:30:45;;;;;;;9.05;1.88;;;10.70;99.90;;;;;;5072814;28;20487;-82
2022/09/18 03:33:11;;;;;;;10.68;2.03;;;10.20;99.90;;;;;;5052800;28;20048;-82
2022/09/18 03:35:47;;;;;;;12.35;1.98;;;10.50;99.90;;;;;;5069505;28;20072;-82
2022/09/18 03:38:16;;;;;;;12.07;2.53;;;10.50;99.90;;;;;;5070134;28;20036;-82
2022/09/18 03:40:45;;;;;;;12.57;2.00;;;9.60;99.90;;;;;;5068913;28;20084;-81
2022/09/18 03:43:14;;;;;;;10.48;2.10;;;10.60;99.90;;;;;;5090500;28;20043;-82
2022/09/18 03:45:45;;;;;;;11.63;2.75;;;10.10;99.90;;;;;;5077283;28;20071;-82
2022/09/18 03:48:11;;;;;;;14.40;2.05;;;10.70;99.90;;;;;;5073699;28;20040;-82
2022/09/18 03:51:22;;;;;;;11.50;1.70;;;10.10;99.90;;;;;;5055671;28;20044;-81
2022/09/18 03:53:55;;;;;;;10.07;1.80;;;10.20;99.90;;;;;;5090393;28;20048;-82
2022/09/18 03:56:23;;;;;;;13.80;2.03;;;10.20;99.90;;;;;;5059983;28;20044;-82
2022/09/18 03:58:52;;;;;;;;;;;10.20;99.90;;;;;;5072177;28;20035;-82
2022/09/18 04:01:21;;;;;;;7.97;1.50;;;10.20;99.90;;;;;;5088932;28;20290;-82
2022/09/18 04:03:51;;;;;;;12.00;2.03;;;11.20;99.90;;;;;;5057618;28;20399;-82
2022/09/18 04:06:17;;;;;;;10.93;1.52;;;10.90;99.90;;;;;;5076045;28;20048;-82
2022/09/18 04:08:43;;;;;;;9.27;1.70;;;9.40;99.90;;;;;;5085570;28;20044;-82
2022/09/18 04:11:12;;;;;;;8.05;1.60;;;10.10;99.90;;;;;;5089105;28;20036;-82
2022/09/18 04:13:47;;;;;;;16.55;2.58;;;10.10;99.90;;;;;;5061419;28;20102;-82
2022/09/18 04:16:21;;;;;;;13.45;1.30;;;10.00;99.90;;;;;;5096740;28;20457;-82
2022/09/18 04:18:47;;;;;;;14.57;2.03;;;9.20;99.90;;;;;;5075746;28;20079;-82
2022/09/18 04:21:13;;;;;;;10.85;1.60;;;10.80;99.90;;;;;;5075295;28;20063;-82
2022/09/18 04:23:42;;;;;;;19.67;2.40;;;10.00;99.90;;;;;;5053953;28;20044;-83
2022/09/18 04:26:13;;;;;;;20.77;2.25;;;11.00;99.90;;;;;;5050978;28;20044;-83
2022/09/18 04:28:44;;;;;;;15.23;2.88;;;10.20;99.90;;;;;;5059553;28;20123;-82
2022/09/18 04:31:13;;;;;;;13.70;1.90;;;10.00;99.90;;;;;;5092888;28;20056;-82
2022/09/18 04:33:45;;;;;;;13.52;2.25;;;10.00;99.90;;;;;;5067093;28;20051;-82
2022/09/18 04:36:19;;;;;;;8.40;2.08;;;10.10;99.90;;;;;;5058264;28;20490;-82
2022/09/18 04:38:59;;;;;;;13.77;1.80;;;10.40;99.90;;;;;;5079545;28;20040;-82
2022/09/18 04:41:30;;;;;;;16.35;2.95;;;9.50;99.90;;;;;;5069004;28;20111;-82
2022/09/18 04:43:58;;;;;;;18.35;2.35;;;10.10;99.90;;;;;;5078729;28;20107;-83
2022/09/18 04:46:29;;;;;;;9.63;2.17;;;10.10;99.90;;;;;;5080198;28;20123;-82
2022/09/18 04:49:06;;;;;;;13.05;1.95;;;10.10;99.90;;;;;;5083647;28;20040;-82
2022/09/18 04:51:34;;;;;;;15.90;1.98;;;10.10;99.90;;;;;;5101796;28;20043;-82
2022/09/18 04:54:06;;;;;;;12.30;2.50;;;10.10;99.90;;;;;;5078756;28;20062;-82
2022/09/18 04:56:48;;;;;;;12.85;1.83;;;10.10;99.90;;;;;;5046455;28;20041;-82
2022/09/18 04:59:22;;;;;;;9.65;2.08;;;10.10;99.90;;;;;;5056429;28;20109;-82
2022/09/18 05:01:53;;;;;;;10.25;1.92;;;10.30;99.90;;;;;;5093917;28;20051;-82
2022/09/18 05:04:27;;;;;;;9.40;1.85;;;10.10;99.90;;;;;;5080620;28;20035;-82
2022/09/18 05:06:56;;;;;;;14.80;2.58;;;11.10;99.90;;;;;;5041470;28;20044;-82
2022/09/18 05:09:22;;;;;;;24.80;2.63;;;10.20;99.90;;;;;;5065456;28;20079;-82
2022/09/18 05:11:56;;;;;;;9.95;1.90;;;10.90;99.90;;;;;;5081551;28;20458;-81
2022/09/18 05:14:24;;;;;;;17.90;3.60;;;10.20;99.90;;;;;;5086218;28;20563;-82
2022/09/18 05:16:53;;;;;;;14.80;3.00;;;10.10;99.90;;;;;;5072290;28;20051;-82
2022/09/18 05:19:22;;;;;;;12.65;2.42;;;11.10;99.90;;;;;;5066968;28;20213;-82
2022/09/18 05:21:56;;;;;;;9.95;1.98;;;10.20;99.90;;;;;;5058229;28;20051;-83
2022/09/18 05:24:22;;;;;;;9.43;1.63;;;10.20;99.90;;;;;;5068047;28;20073;-82
2022/09/18 05:27:08;;;;;;;12.57;1.98;;;11.10;99.90;;;;;;5061631;28;20107;-82
2022/09/18 05:30:16;;;;;;;13.82;2.50;;;10.10;99.90;;;;;;5063357;28;20053;-83
2022/09/18 05:33:29;;;;;;;6.22;1.75;;;10.20;99.90;;;;;;5104290;28;20063;-82
2022/09/18 05:36:27;;;;;;;11.07;1.67;;;10.20;99.90;;;;;;5021897;28;20052;-82
2022/09/18 05:38:58;;;;;;;;;;;10.30;99.90;;;;;;5064384;28;20074;-82
2022/09/18 05:41:24;;;;;;;6.80;1.40;;;10.20;99.90;;;;;;5100878;28;19904;-82
2022/09/18 05:43:52;;;;;;;10.52;1.70;;;11.20;99.90;;;;;;5073093;28;20132;-82
2022/09/18 05:46:21;;;;;;;8.18;1.67;;;10.20;99.90;;;;;;5056015;28;20040;-83
2022/09/18 05:48:50;;;;;;;;;;;10.20;99.90;;;;;;5086381;28;20123;-82
2022/09/18 05:51:18;;;;;;;12.75;1.50;;;10.20;99.90;;;;;;5087173;28;19920;-82
2022/09/18 05:53:47;;;;;;;14.10;1.75;;;10.00;99.90;;;;;;5061561;28;20054;-81
2022/09/18 05:56:14;;;;;;;8.85;2.30;;;11.20;99.90;;;;;;5061165;28;20040;-81
2022/09/18 05:58:43;;;;;;;10.10;1.65;;;11.00;99.90;;;;;;5089394;28;20109;-81
2022/09/18 06:01:09;;;;;;;;;;;10.70;99.90;;;;;;5071465;28;20040;-81
2022/09/18 06:03:37;;;;;;;10.10;1.33;;;11.10;99.90;;;;;;5064305;28;19971;-80
2022/09/18 06:06:03;;;;;;;10.18;1.70;;;11.40;99.90;;;;;;5076959;28;20047;-82
2022/09/18 06:08:33;;;;;;;14.68;1.85;;;10.30;99.90;;;;;;5073055;28;20044;-82
2022/09/18 06:11:06;;;;;;;9.45;1.52;;;10.30;99.90;;;;;;5086864;28;20060;-82
2022/09/18 06:13:32;;;;;;;14.15;1.95;;;10.30;99.90;;;;;;5115944;27;20085;-82
2022/09/18 06:16:03;;;;;;;8.35;1.92;;;11.10;99.90;;;;;;5059916;28;20067;-81
2022/09/18 06:18:37;;;;;;;15.52;2.05;;;10.20;99.90;;;;;;5068282;28;20055;-82
2022/09/18 06:21:13;;;;;;;;;;;;;;;;;;;;;
2022/09/18 06:23:42;;;;;;;13.85;1.90;;;10.30;99.90;;;;;;5077764;28;20055;-82
2022/09/18 06:26:09;;;;;;;11.10;1.83;;;11.00;99.90;;;;;;5077054;28;20043;-81
2022/09/18 06:28:45;;;;;;;;;;;;;;;;;;;;;
2022/09/18 06:31:21;;;;;;;10.45;2.20;;;10.40;99.90;;;;;;5087818;28;20040;-81
2022/09/18 06:33:48;;;;;;;17.48;2.35;;;10.30;99.90;;;;;;5067739;28;20502;-82
2022/09/18 06:36:16;;;;;;;11.40;2.08;;;10.90;99.90;;;;;;5079039;28;20453;-82
2022/09/18 06:38:50;;;;;;;14.95;2.67;;;11.00;99.90;;;;;;5075424;28;20407;-82
2022/09/18 06:41:19;;;;;;;18.30;2.75;;;10.20;99.90;;;;;;5083013;28;20036;-83
2022/09/18 06:43:52;;;;;;;11.00;2.22;;;10.50;99.90;;;;;;5082921;28;20136;-82
2022/09/18 06:46:28;;;;;;;14.07;2.33;;;10.50;99.90;;;;;;5087122;28;20048;-82
2022/09/18 06:48:54;;;;;;;21.92;2.17;;;10.70;99.90;;;;;;5080083;28;20040;-82
2022/09/18 06:52:09;;;;;;;5.97;1.48;;;10.50;99.90;;;;;;5085286;28;20489;-83
2022/09/18 06:54:16;;;;;;;8.57;1.83;;;10.50;99.90;;;;;;5093483;28;20044;-82
2022/09/18 06:56:42;;;;;;;7.68;1.45;;;11.20;99.90;;;;;;5060774;28;20491;-82
2022/09/18 06:59:08;;;;;;;6.70;1.77;;;10.40;99.90;;;;;;5070905;28;20122;-82
2022/09/18 07:01:36;;;;;;;16.70;2.05;;;10.80;99.90;;;;;;5057065;28;20080;-81
2022/09/18 07:04:02;;;;;;;6.82;1.52;;;11.60;99.90;;;;;;5075227;28;20386;-82
2022/09/18 07:06:31;;;;;;;12.68;1.80;;;10.70;99.90;;;;;;5075031;28;20041;-82
2022/09/18 07:08:57;;;;;;;9.55;1.48;;;11.80;99.90;;;;;;5080894;28;20044;-81
2022/09/18 07:11:28;;;;;;;14.68;1.92;;;10.30;99.90;;;;;;5090260;28;20048;-81
2022/09/18 07:14:00;;;;;;;10.50;1.67;;;10.60;99.90;;;;;;5092830;28;20049;-82
2022/09/18 07:16:37;;;;;;;12.05;1.60;;;10.80;99.90;;;;;;5111489;28;20100;-82
2022/09/18 07:19:11;;;;;;;12.02;1.50;;;10.80;99.90;;;;;;5063521;28;20043;-82
2022/09/18 07:21:44;;;;;;;13.05;1.73;;;10.70;99.90;;;;;;5050944;28;20036;-82
2022/09/18 07:24:10;;;;;;;7.25;1.40;;;10.30;99.90;;;;;;5070051;28;20032;-82
2022/09/18 07:26:39;;;;;;;8.05;1.48;;;10.30;99.90;;;;;;5096129;28;20052;-82
2022/09/18 07:29:05;;;;;;;13.73;1.85;;;10.90;99.90;;;;;;5085310;28;20054;-83
2022/09/18 07:31:34;;;;;;;7.78;2.20;;;11.50;99.90;;;;;;5084905;28;20383;-82
2022/09/18 07:34:08;;;;;;;9.20;1.45;;;11.00;99.90;;;;;;5100487;28;20040;-83
2022/09/18 07:46:01;;;;;;;10.02;2.25;;;10.50;99.90;;;;;;5015728;28;20092;-84
2022/09/18 07:48:39;;;;;;;8.57;1.55;;;10.80;99.90;;;;;;5003103;28;20056;-81
2022/09/18 07:51:34;;;;;;;9.88;1.75;;;10.90;99.90;;;;;;5015310;28;20042;-82
2022/09/18 07:54:44;;;;;;;13.00;2.08;;;10.80;99.90;;;;;;5014984;28;20052;-82
2022/09/18 08:04:50;;;;;;;13.07;2.78;;;10.80;99.90;;;;;;5000881;28;20049;-83
2022/09/18 08:07:45;;;;;;;13.80;2.63;;;10.80;99.90;;;;;;5015219;28;20553;-82
2022/09/18 08:11:02;;;;;;;;;;;;;;;;;;;;;
2022/09/18 08:13:55;;;;;;;12.13;2.60;;;10.80;99.90;;;;;;5078732;28;20052;-82
2022/09/18 08:21:20;;;;;;;;;;;;;;;;;;;;;
2022/09/18 08:24:36;;;;;;;10.68;2.10;;;10.20;99.90;;;;;;4923716;29;20123;-83
2022/09/18 08:27:20;;;;;;;11.63;2.40;;;10.90;99.90;;;;;;4940520;28;20390;-82
2022/09/18 08:29:57;;;;;;;9.70;2.33;;;11.00;99.90;;;;;;5013893;28;20108;-80
2022/09/18 08:32:26;;;;;;;10.10;2.00;;;11.30;99.90;;;;;;4987467;28;20052;-80
2022/09/18 08:34:54;;;;;;;9.52;2.20;;;10.70;99.90;;;;;;4992757;28;20068;-82
2022/09/18 08:37:27;;;;;;;11.43;2.10;;;11.10;99.90;;;;;;5017357;28;20073;-81
2022/09/18 08:39:53;;;;;;;12.40;2.42;;;10.90;99.90;;;;;;5016680;28;20054;-80
2022/09/18 08:42:25;;;;;;;18.85;2.63;;;10.90;99.90;;;;;;5007988;28;20077;-80
2022/09/18 08:45:16;;;;;;;9.32;1.70;;;10.80;99.90;;;;;;4990525;28;20064;-81
2022/09/18 08:48:11;;;;;;;12.07;2.60;;;10.30;99.90;;;;;;4983985;28;20046;-81
2022/09/18 08:50:47;;;;;;;9.05;1.80;;;10.90;99.90;;;;;;5001257;28;20120;-82
2022/09/18 08:54:03;;;;;;;5.47;1.40;;;10.80;99.90;;;;;;5032029;28;20045;-81
2022/09/18 09:00:52;;;;;;;8.95;1.75;;;10.80;99.90;;;;;;5039145;28;20080;-87
2022/09/18 09:03:52;;;;;;;15.10;2.05;;;10.70;99.90;;;;;;5058037;28;20098;-87
2022/09/18 09:06:27;;;;;;;14.98;1.95;;;10.80;99.90;;;;;;5057926;28;20051;-83
2022/09/18 09:09:27;;;;;;;12.23;1.77;;;10.70;99.90;;;;;;5045359;28;20043;-83
2022/09/18 09:12:40;;;;;;;8.65;2.03;;;10.60;99.90;;;;;;5057521;28;20060;-85
2022/09/18 09:26:57;;;;;;;15.90;2.10;;;10.40;99.90;;;;;;4978666;28;20045;-83
2022/09/18 09:33:06;;;;;;;11.98;2.50;;;10.60;99.90;;;;;;4981632;28;20042;-85
2022/09/18 09:35:57;;;;;;;15.65;2.33;;;10.70;99.90;;;;;;4980164;28;20049;-87
2022/09/18 09:39:03;;;;;;;13.82;2.00;;;10.80;99.90;;;;;;5003435;28;20030;-85
2022/09/18 09:41:39;;;;;;;17.15;2.38;;;10.80;99.90;;;;;;5018749;28;20618;-64
2022/09/18 09:44:36;;;;;;;12.77;2.50;;;10.80;99.90;;;;;;5005345;28;20571;-65
2022/09/18 09:47:26;;;;;;;18.27;2.92;;;10.80;99.90;;;;;;5012559;28;20077;-65
2022/09/18 09:50:15;;;;;;;9.68;2.50;;;10.90;99.90;;;;;;5028052;28;20034;-64
2022/09/18 09:52:45;;;;;;;14.93;2.28;;;10.90;99.90;;;;;;5008517;28;20487;-64
2022/09/18 09:55:16;;;;;;;14.82;2.88;;;10.90;99.90;;;;;;5022754;28;20073;-63
2022/09/18 09:58:00;;;;;;;11.20;1.90;;;11.00;99.90;;;;;;5011932;28;20129;-63
2022/09/18 10:00:29;;;;;;;11.93;2.05;;;11.10;99.90;;;;;;4986048;28;20535;-64
2022/09/18 10:03:05;;;;;;;11.50;2.72;;;11.10;99.90;;;;;;4988950;28;20589;-63
2022/09/18 10:05:45;;;;;;;11.00;3.03;;;11.10;99.90;;;;;;4986734;28;20042;-65
2022/09/18 10:08:22;;;;;;;9.93;1.92;;;11.20;99.90;;;;;;4967928;28;20046;-64
2022/09/18 10:10:53;;;;;;;11.70;1.90;;;11.20;99.90;;;;;;4995145;28;20058;-65
2022/09/18 10:13:24;;;;;;;14.23;2.47;;;11.20;99.90;;;;;;4991320;28;20049;-64
2022/09/18 10:15:56;;;;;;;17.17;2.38;;;11.30;99.90;;;;;;4974259;28;20429;-64
2022/09/18 10:18:28;;;;;;;12.35;2.17;;;11.30;99.90;;;;;;4992183;28;20090;-64
2022/09/18 10:21:05;;;;;;;18.02;2.47;;;11.40;99.90;;;;;;4996339;28;20105;-64
2022/09/18 10:23:37;;;;;;;10.20;1.75;;;11.40;99.90;;;;;;4985615;28;20043;-63
2022/09/18 10:26:04;;;;;;;15.05;2.45;;;11.40;99.90;;;;;;4993694;28;20042;-65
2022/09/18 10:28:30;;;;;;;13.30;2.97;;;11.50;99.90;;;;;;4981990;28;20046;-64
2022/09/18 10:31:02;;;;;;;12.57;2.38;;;11.50;99.90;;;;;;4967993;28;20499;-65
2022/09/18 10:33:34;;;;;;;15.57;2.72;;;11.50;99.90;;;;;;5006471;28;20050;-64
2022/09/18 10:36:07;;;;;;;15.88;2.70;;;11.60;99.90;;;;;;4999653;28;20433;-65
2022/09/18 10:38:33;;;;;;;14.88;2.38;;;11.60;99.90;;;;;;4998787;28;20042;-66
2022/09/18 10:41:36;;;;;;;15.65;3.13;;;11.60;99.90;;;;;;5019104;28;20465;-64
2022/09/18 10:44:26;;;;;;;15.23;2.03;;;11.60;99.90;;;;;;4991750;28;20046;-65
2022/09/18 10:47:05;;;;;;;14.18;2.70;;;11.70;99.90;;;;;;5004400;28;20117;-65
2022/09/18 10:49:35;;;;;;;17.23;2.20;;;11.70;99.90;;;;;;5008245;28;20041;-64
2022/09/18 10:52:26;;;;;;;8.65;2.05;;;11.70;99.90;;;;;;4991952;28;20049;-64
2022/09/18 10:55:06;;;;;;;11.07;2.03;;;11.80;99.90;;;;;;5002899;28;20042;-64
2022/09/18 10:57:59;;;;;;;9.00;2.30;;;11.90;99.90;;;;;;5013596;28;20121;-64
2022/09/18 11:00:24;;;;;;;11.95;1.95;;;12.00;99.90;;;;;;5011172;28;20030;-65
2022/09/18 11:02:53;;;;;;;9.18;2.10;;;12.00;99.90;;;;;;5004764;28;20054;-65
2022/09/18 11:05:21;;;;;;;;;;;12.10;99.90;;;;;;5012546;28;20037;-65
2022/09/18 11:07:54;;;;;;;11.40;2.15;;;12.10;99.90;;;;;;4991281;28;20465;-66
2022/09/18 11:10:22;;;;;;;13.55;3.08;;;12.10;99.90;;;;;;4994284;28;20126;-66
2022/09/18 11:12:55;;;;;;;14.25;3.17;;;12.20;99.90;;;;;;5008273;28;20100;-66
2022/09/18 11:15:24;;;;;;;10.95;2.03;;;12.20;99.90;;;;;;5015500;28;20046;-65
2022/09/18 11:17:53;;;;;;;8.70;2.00;;;12.30;99.90;;;;;;5024761;28;20439;-66
2022/09/18 11:20:30;;;;;;;15.95;2.35;;;12.30;99.90;;;;;;4993564;28;20519;-65
2022/09/18 11:23:18;;;;;;;13.10;2.10;;;12.40;99.90;;;;;;5018622;28;20512;-65
2022/09/18 11:25:45;;;;;;;11.10;2.88;;;12.50;99.90;;;;;;5013980;28;20042;-64
2022/09/18 11:28:21;;;;;;;9.48;2.10;;;12.60;99.90;;;;;;4991617;28;20104;-67
2022/09/18 11:30:58;;;;;;;6.03;1.40;;;12.60;99.90;;;;;;4969411;28;20042;-64
2022/09/18 11:33:29;;;;;;;7.03;1.75;;;12.60;99.90;;;;;;5011656;28;20034;-66
2022/09/18 11:36:02;;;;;;;13.38;2.40;;;12.70;99.90;;;;;;5019161;28;20041;-66
2022/09/18 11:38:28;;;;;;;10.77;1.85;;;12.70;99.90;;;;;;5010951;28;20129;-66
2022/09/18 11:40:58;;;;;;;5.43;1.55;;;12.70;99.90;;;;;;5017967;28;20092;-64
2022/09/18 11:43:34;;;;;;;12.20;1.70;;;12.80;99.90;;;;;;5012283;28;20068;-65
2022/09/18 11:46:15;;;;;;;11.25;1.70;;;12.80;99.90;;;;;;4978576;28;20395;-64
2022/09/18 11:49:06;;;;;;;13.52;2.05;;;12.80;99.90;;;;;;4981861;28;20041;-66
2022/09/18 11:52:02;;;;;;;10.70;1.85;;;12.90;99.90;;;;;;5012661;28;20483;-65
2022/09/18 11:54:35;;;;;;;13.75;2.10;;;12.90;99.90;;;;;;5002654;28;20061;-66
2022/09/18 11:57:03;;;;;;;14.45;2.17;;;12.90;99.90;;;;;;5006863;28;20072;-66
2022/09/18 11:59:41;;;;;;;5.95;1.55;;;12.90;99.90;;;;;;5007747;28;20042;-65
2022/09/18 12:02:15;;;;;;;13.38;2.17;;;13.00;99.90;;;;;;4984704;28;20369;-64
2022/09/18 12:04:52;;;;;;;9.15;1.83;;;12.90;99.90;;;;;;5007230;28;20043;-66
2022/09/18 12:07:47;;;;;;;13.43;1.70;;;12.90;99.90;;;;;;5010145;28;20046;-66
2022/09/18 12:10:38;;;;;;;12.27;2.10;;;12.90;99.90;;;;;;5001743;28;20472;-66
2022/09/18 12:13:18;;;;;;;16.70;2.20;;;12.90;99.90;;;;;;5006359;28;20699;-66
2022/09/18 12:15:49;;;;;;;15.15;2.40;;;12.80;99.90;;;;;;5010978;28;20400;-66
2022/09/18 12:18:20;;;;;;;13.93;2.45;;;12.90;99.90;;;;;;5013761;28;20049;-65
2022/09/18 12:20:57;;;;;;;18.73;2.78;;;13.00;99.90;;;;;;5011921;28;20395;-65
2022/09/18 12:23:24;;;;;;;7.88;1.85;;;13.00;99.90;;;;;;5018347;28;20133;-66
2022/09/18 12:26:27;;;;;;;8.40;2.03;;;13.10;99.90;;;;;;4994874;28;20037;-68
2022/09/18 12:29:21;;;;;;;10.25;1.95;;;13.10;99.90;;;;;;5001991;28;20396;-66
2022/09/18 12:31:52;;;;;;;9.63;1.70;;;13.30;99.90;;;;;;4995747;28;20038;-66
2022/09/18 12:34:47;;;;;;;10.95;1.65;;;13.40;99.90;;;;;;5008435;28;20495;-65
2022/09/18 12:37:38;;;;;;;7.93;1.70;;;13.50;99.90;;;;;;4979897;28;20125;-66
2022/09/18 12:40:12;;;;;;;10.45;1.83;;;13.60;99.90;;;;;;4986710;28;20062;-66
2022/09/18 12:42:55;;;;;;;8.15;1.90;;;13.70;99.90;;;;;;4984779;28;20426;-65
2022/09/18 12:45:33;;;;;;;9.85;2.28;;;13.70;99.90;;;;;;4998898;28;20046;-66
2022/09/18 12:48:10;;;;;;;8.15;1.98;;;13.70;99.90;;;;;;4998139;28;20038;-64
2022/09/18 12:51:09;;;;;;;6.45;1.60;;;13.70;99.90;;;;;;5014231;28;20099;-65
2022/09/18 12:53:56;;;;;;;11.82;1.35;;;13.70;99.90;;;;;;5015883;28;20041;-64
2022/09/18 12:56:53;;;;;;;3.50;1.35;;;13.70;99.90;;;;;;5020627;28;20507;-66
2022/09/18 12:59:43;;;;;;;4.85;1.35;;;13.70;99.90;;;;;;4978879;28;20046;-68
2022/09/18 13:02:32;;;;;;;8.20;1.52;;;13.70;99.90;;;;;;4993091;28;20081;-65
2022/09/18 13:05:07;;;;;;;9.65;1.65;;;13.60;99.90;;;;;;4992535;28;20042;-64
2022/09/18 13:07:40;;;;;;;10.73;2.20;;;13.60;99.90;;;;;;4988485;28;20574;-65
2022/09/18 13:10:30;;;;;;;5.57;1.83;;;13.60;99.90;;;;;;5014223;28;20092;-66
2022/09/18 13:13:22;;;;;;;10.55;1.67;;;13.60;99.90;;;;;;5005770;28;20049;-65
2022/09/18 13:15:55;;;;;;;12.23;2.40;;;13.70;99.90;;;;;;5000904;28;20545;-65
2022/09/18 13:18:48;;;;;;;10.98;1.88;;;13.60;99.90;;;;;;4993317;28;20050;-67
2022/09/18 13:21:32;;;;;;;11.05;1.88;;;13.60;99.90;;;;;;5002116;28;20039;-65
2022/09/18 13:23:59;;;;;;;6.93;1.55;;;13.40;99.90;;;;;;5003702;28;20410;-64
2022/09/18 13:26:30;;;;;;;7.90;1.92;;;13.00;99.90;;;;;;5008689;28;20053;-67
2022/09/18 13:28:56;;;;;;;8.20;1.48;;;12.50;99.90;;;;;;5007051;28;20137;-65
2022/09/18 13:31:31;;;;;;;6.93;1.45;;;12.00;99.90;;;;;;4998740;28;20124;-67
2022/09/18 13:34:03;;;;;;;8.40;1.90;;;11.80;99.90;;;;;;5005149;28;20167;-65
2022/09/18 13:36:37;;;;;;;6.60;1.63;;;11.70;99.90;;;;;;5013012;28;20052;-66
2022/09/18 13:39:28;;;;;;;5.90;1.67;;;11.70;99.90;;;;;;5009064;28;20034;-66
2022/09/18 13:41:56;;;;;;;7.40;1.45;;;11.80;99.90;;;;;;5010874;28;20046;-64
2022/09/18 13:44:34;;;;;;;6.57;1.63;;;11.80;99.90;;;;;;5025031;28;20041;-65
2022/09/18 13:47:12;;;;;;;10.20;2.03;;;11.90;99.90;;;;;;5012712;28;20041;-65
2022/09/18 13:49:48;;;;;;;10.53;1.93;;;12.00;99.90;;;;;;4992849;28;20065;-65
2022/09/18 13:52:32;;;;;;;15.57;2.33;;;12.00;99.90;;;;;;5011013;28;20050;-65
2022/09/18 13:55:15;;;;;;;11.82;2.35;;;12.10;99.90;;;;;;4997397;28;20441;-68
2022/09/18 13:57:42;;;;;;;12.48;2.30;;;12.20;99.90;;;;;;4994437;28;20038;-66
2022/09/18 14:00:20;;;;;;;13.45;2.10;;;12.20;99.90;;;;;;5002592;28;20038;-67
2022/09/18 14:02:50;;;;;;;10.75;1.88;;;12.30;99.90;;;;;;5010977;28;20054;-65
2022/09/18 14:05:29;;;;;;;10.10;1.70;;;12.20;99.90;;;;;;5012936;28;20050;-65
2022/09/18 14:08:06;;;;;;;11.23;2.45;;;12.20;99.90;;;;;;4997332;28;20057;-67
2022/09/18 14:10:36;;;;;;;9.30;1.73;;;12.30;99.90;;;;;;5005662;28;20061;-65
2022/09/18 14:13:17;;;;;;;11.90;2.45;;;12.30;99.90;;;;;;5007033;28;20052;-65
2022/09/18 14:16:16;;;;;;;9.88;2.33;;;12.30;99.90;;;;;;5011090;28;20053;-65
2022/09/18 14:18:47;;;;;;;14.02;2.25;;;12.30;99.90;;;;;;5009173;28;20046;-65
2022/09/18 14:21:16;;;;;;;15.13;2.17;;;12.30;99.90;;;;;;5006391;28;20117;-66